Hoopers Valley, New York
Current Conditions -  °F | °C
As of 3:53 PM on Monday 24 Nov 2014 (Local Time) from KBGM Reporting Station
Broken Clouds Broken Clouds  
Wind Chill: 18°   Ceiling: 8500
Heat Index: 18°   Visibility: 10mi
Dew Point:   Wind: 20mph
Humidity: 54%   Direction: 210°SSW
Pressure: 29.45"   Gusts: 33mph
Location:  42.0389°N, 76.3138°W
Report Text: KBGM 242053Z 21017G29KT 10SM BKN085 18/09 A2945 RMK AO2 PK WND 19029/2050 SLP968 T01830089 53003
Loading
Personal Weather Stations






























Interactive Weather Map New forecast layout! Learn more

10-Day Weather Forecast

Advertisements
Track Severe Weather on mobile